sensor_id;sensor_type;location;lat;lon;timestamp;P1;P2;P0
33431;PMS5003;35187;31.882;34.828;2023-06-26T00:01:44;9;8;
33431;PMS5003;35187;31.882;34.828;2023-06-26T00:04:18;9;8;
33431;PMS5003;35187;31.882;34.828;2023-06-26T00:06:47;7;6;
33431;PMS5003;35187;31.882;34.828;2023-06-26T00:09:16;10;8;
33431;PMS5003;35187;31.882;34.828;2023-06-26T00:11:50;8;8;
33431;PMS5003;35187;31.882;34.828;2023-06-26T00:14:20;8;8;
33431;PMS5003;35187;31.882;34.828;2023-06-26T00:16:49;7;6;
33431;PMS5003;35187;31.882;34.828;2023-06-26T00:19:23;6;6;
33431;PMS5003;35187;31.882;34.828;2023-06-26T00:21:52;6;6;
33431;PMS5003;35187;31.882;34.828;2023-06-26T00:24:21;7;7;
33431;PMS5003;35187;31.882;34.828;2023-06-26T00:26:50;7;7;
33431;PMS5003;35187;31.882;34.828;2023-06-26T00:29:19;7;6;
33431;PMS5003;35187;31.882;34.828;2023-06-26T00:31:48;7;7;
33431;PMS5003;35187;31.882;34.828;2023-06-26T00:34:17;6;6;
33431;PMS5003;35187;31.882;34.828;2023-06-26T00:36:46;6;6;
33431;PMS5003;35187;31.882;34.828;2023-06-26T00:39:15;6;6;
33431;PMS5003;35187;31.882;34.828;2023-06-26T00:41:46;6;6;
33431;PMS5003;35187;31.882;34.828;2023-06-26T00:44:15;6;5;
33431;PMS5003;35187;31.882;34.828;2023-06-26T00:46:44;7;7;
33431;PMS5003;35187;31.882;34.828;2023-06-26T00:49:15;7;6;
33431;PMS5003;35187;31.882;34.828;2023-06-26T00:51:44;4;4;
33431;PMS5003;35187;31.882;34.828;2023-06-26T00:54:14;7;7;
33431;PMS5003;35187;31.882;34.828;2023-06-26T00:56:43;7;7;
33431;PMS5003;35187;31.882;34.828;2023-06-26T00:59:14;8;8;
33431;PMS5003;35187;31.882;34.828;2023-06-26T01:01:48;8;7;
33431;PMS5003;35187;31.882;34.828;2023-06-26T01:04:17;6;6;
33431;PMS5003;35187;31.882;34.828;2023-06-26T01:06:46;6;6;
33431;PMS5003;35187;31.882;34.828;2023-06-26T01:09:17;8;7;
33431;PMS5003;35187;31.882;34.828;2023-06-26T01:11:47;6;6;
33431;PMS5003;35187;31.882;34.828;2023-06-26T01:14:16;6;6;
33431;PMS5003;35187;31.882;34.828;2023-06-26T01:16:47;6;6;
33431;PMS5003;35187;31.882;34.828;2023-06-26T01:19:19;6;6;
33431;PMS5003;35187;31.882;34.828;2023-06-26T01:21:51;7;7;
33431;PMS5003;35187;31.882;34.828;2023-06-26T01:24:28;8;7;
33431;PMS5003;35187;31.882;34.828;2023-06-26T01:27:03;8;8;
33431;PMS5003;35187;31.882;34.828;2023-06-26T01:29:33;6;6;
33431;PMS5003;35187;31.882;34.828;2023-06-26T01:32:03;8;7;
33431;PMS5003;35187;31.882;34.828;2023-06-26T01:34:32;6;6;
33431;PMS5003;35187;31.882;34.828;2023-06-26T01:37:02;9;9;
33431;PMS5003;35187;31.882;34.828;2023-06-26T01:39:31;10;9;
33431;PMS5003;35187;31.882;34.828;2023-06-26T01:42:01;9;9;
33431;PMS5003;35187;31.882;34.828;2023-06-26T01:44:31;7;7;
33431;PMS5003;35187;31.882;34.828;2023-06-26T01:47:03;7;7;
33431;PMS5003;35187;31.882;34.828;2023-06-26T01:49:37;7;7;
33431;PMS5003;35187;31.882;34.828;2023-06-26T01:52:14;8;8;
33431;PMS5003;35187;31.882;34.828;2023-06-26T01:54:54;9;9;
33431;PMS5003;35187;31.882;34.828;2023-06-26T01:57:26;9;9;
33431;PMS5003;35187;31.882;34.828;2023-06-26T01:59:58;8;7;
33431;PMS5003;35187;31.882;34.828;2023-06-26T02:02:28;12;10;
33431;PMS5003;35187;31.882;34.828;2023-06-26T02:04:58;9;7;
33431;PMS5003;35187;31.882;34.828;2023-06-26T02:07:27;11;10;
33431;PMS5003;35187;31.882;34.828;2023-06-26T02:09:55;14;13;
33431;PMS5003;35187;31.882;34.828;2023-06-26T02:12:31;16;15;
33431;PMS5003;35187;31.882;34.828;2023-06-26T02:15:02;19;18;
33431;PMS5003;35187;31.882;34.828;2023-06-26T02:17:31;19;16;
33431;PMS5003;35187;31.882;34.828;2023-06-26T02:20:00;19;19;
33431;PMS5003;35187;31.882;34.828;2023-06-26T02:22:30;19;19;
33431;PMS5003;35187;31.882;34.828;2023-06-26T02:25:08;25;23;
33431;PMS5003;35187;31.882;34.828;2023-06-26T02:27:43;25;24;
33431;PMS5003;35187;31.882;34.828;2023-06-26T02:30:12;28;27;
33431;PMS5003;35187;31.882;34.828;2023-06-26T02:32:41;28;27;
33431;PMS5003;35187;31.882;34.828;2023-06-26T02:35:10;26;25;
33431;PMS5003;35187;31.882;34.828;2023-06-26T02:37:39;36;32;
33431;PMS5003;35187;31.882;34.828;2023-06-26T02:40:09;28;26;
33431;PMS5003;35187;31.882;34.828;2023-06-26T02:42:38;30;28;
33431;PMS5003;35187;31.882;34.828;2023-06-26T02:45:13;32;29;
33431;PMS5003;35187;31.882;34.828;2023-06-26T02:47:42;32;31;
33431;PMS5003;35187;31.882;34.828;2023-06-26T02:50:16;30;29;
33431;PMS5003;35187;31.882;34.828;2023-06-26T02:52:53;33;29;
33431;PMS5003;35187;31.882;34.828;2023-06-26T02:55:23;31;29;
33431;PMS5003;35187;31.882;34.828;2023-06-26T02:57:53;33;32;
33431;PMS5003;35187;31.882;34.828;2023-06-26T03:00:28;31;30;
33431;PMS5003;35187;31.882;34.828;2023-06-26T03:02:57;33;32;
33431;PMS5003;35187;31.882;34.828;2023-06-26T03:05:26;32;29;
33431;PMS5003;35187;31.882;34.828;2023-06-26T03:07:55;32;31;
33431;PMS5003;35187;31.882;34.828;2023-06-26T03:10:24;34;32;
33431;PMS5003;35187;31.882;34.828;2023-06-26T03:12:53;32;30;
33431;PMS5003;35187;31.882;34.828;2023-06-26T03:15:22;30;29;
33431;PMS5003;35187;31.882;34.828;2023-06-26T03:17:52;32;31;
33431;PMS5003;35187;31.882;34.828;2023-06-26T03:20:21;41;37;
33431;PMS5003;35187;31.882;34.828;2023-06-26T03:22:50;35;30;
33431;PMS5003;35187;31.882;34.828;2023-06-26T03:25:19;31;28;
33431;PMS5003;35187;31.882;34.828;2023-06-26T03:27:48;32;31;
33431;PMS5003;35187;31.882;34.828;2023-06-26T03:30:17;29;28;
33431;PMS5003;35187;31.882;34.828;2023-06-26T03:32:47;28;27;
33431;PMS5003;35187;31.882;34.828;2023-06-26T03:35:16;31;31;
33431;PMS5003;35187;31.882;34.828;2023-06-26T03:37:44;33;31;
33431;PMS5003;35187;31.882;34.828;2023-06-26T03:40:13;32;31;
33431;PMS5003;35187;31.882;34.828;2023-06-26T03:42:42;28;26;
33431;PMS5003;35187;31.882;34.828;2023-06-26T03:45:11;31;30;
33431;PMS5003;35187;31.882;34.828;2023-06-26T03:47:40;29;28;
33431;PMS5003;35187;31.882;34.828;2023-06-26T03:50:09;29;28;
33431;PMS5003;35187;31.882;34.828;2023-06-26T03:52:38;29;28;
33431;PMS5003;35187;31.882;34.828;2023-06-26T03:55:07;30;29;
33431;PMS5003;35187;31.882;34.828;2023-06-26T03:57:36;26;26;
33431;PMS5003;35187;31.882;34.828;2023-06-26T04:00:05;31;30;
33431;PMS5003;35187;31.882;34.828;2023-06-26T04:02:35;27;27;
33431;PMS5003;35187;31.882;34.828;2023-06-26T04:05:04;28;28;
33431;PMS5003;35187;31.882;34.828;2023-06-26T04:07:33;28;27;
33431;PMS5003;35187;31.882;34.828;2023-06-26T04:10:02;26;25;
33431;PMS5003;35187;31.882;34.828;2023-06-26T04:12:32;29;29;
33431;PMS5003;35187;31.882;34.828;2023-06-26T04:15:01;29;29;
33431;PMS5003;35187;31.882;34.828;2023-06-26T04:17:30;30;28;
33431;PMS5003;35187;31.882;34.828;2023-06-26T04:19:59;33;32;
33431;PMS5003;35187;31.882;34.828;2023-06-26T04:22:28;26;25;
33431;PMS5003;35187;31.882;34.828;2023-06-26T04:24:56;31;29;
33431;PMS5003;35187;31.882;34.828;2023-06-26T04:27:25;29;27;
33431;PMS5003;35187;31.882;34.828;2023-06-26T04:29:54;29;28;
33431;PMS5003;35187;31.882;34.828;2023-06-26T04:32:23;23;23;
33431;PMS5003;35187;31.882;34.828;2023-06-26T04:34:52;28;27;
33431;PMS5003;35187;31.882;34.828;2023-06-26T04:37:21;22;22;
33431;PMS5003;35187;31.882;34.828;2023-06-26T04:39:50;30;29;
33431;PMS5003;35187;31.882;34.828;2023-06-26T04:42:19;28;28;
33431;PMS5003;35187;31.882;34.828;2023-06-26T04:44:48;26;26;
33431;PMS5003;35187;31.882;34.828;2023-06-26T04:47:16;26;26;
33431;PMS5003;35187;31.882;34.828;2023-06-26T04:49:45;26;25;
33431;PMS5003;35187;31.882;34.828;2023-06-26T04:52:14;27;27;
33431;PMS5003;35187;31.882;34.828;2023-06-26T04:54:43;25;23;
33431;PMS5003;35187;31.882;34.828;2023-06-26T04:57:12;27;26;
33431;PMS5003;35187;31.882;34.828;2023-06-26T04:59:40;30;29;
33431;PMS5003;35187;31.882;34.828;2023-06-26T05:02:10;28;26;
33431;PMS5003;35187;31.882;34.828;2023-06-26T05:04:38;27;25;
33431;PMS5003;35187;31.882;34.828;2023-06-26T05:07:07;26;26;
33431;PMS5003;35187;31.882;34.828;2023-06-26T05:09:36;27;26;
33431;PMS5003;35187;31.882;34.828;2023-06-26T05:12:06;23;21;
33431;PMS5003;35187;31.882;34.828;2023-06-26T05:14:35;31;30;
33431;PMS5003;35187;31.882;34.828;2023-06-26T05:17:05;27;26;
33431;PMS5003;35187;31.882;34.828;2023-06-26T05:19:34;31;29;
33431;PMS5003;35187;31.882;34.828;2023-06-26T05:22:04;24;23;
33431;PMS5003;35187;31.882;34.828;2023-06-26T05:24:34;25;24;
33431;PMS5003;35187;31.882;34.828;2023-06-26T05:27:04;28;27;
33431;PMS5003;35187;31.882;34.828;2023-06-26T05:29:34;26;25;
33431;PMS5003;35187;31.882;34.828;2023-06-26T05:32:04;28;27;
33431;PMS5003;35187;31.882;34.828;2023-06-26T05:34:34;23;23;
33431;PMS5003;35187;31.882;34.828;2023-06-26T05:37:04;23;23;
33431;PMS5003;35187;31.882;34.828;2023-06-26T05:39:35;25;24;
33431;PMS5003;35187;31.882;34.828;2023-06-26T05:42:04;21;20;
33431;PMS5003;35187;31.882;34.828;2023-06-26T05:44:34;26;24;
33431;PMS5003;35187;31.882;34.828;2023-06-26T05:47:03;27;26;
33431;PMS5003;35187;31.882;34.828;2023-06-26T05:49:32;22;21;
33431;PMS5003;35187;31.882;34.828;2023-06-26T05:52:02;23;21;
33431;PMS5003;35187;31.882;34.828;2023-06-26T05:54:31;20;19;
33431;PMS5003;35187;31.882;34.828;2023-06-26T05:57:01;25;22;
33431;PMS5003;35187;31.882;34.828;2023-06-26T05:59:31;21;21;
33431;PMS5003;35187;31.882;34.828;2023-06-26T06:02:00;22;21;
33431;PMS5003;35187;31.882;34.828;2023-06-26T06:04:29;22;20;
33431;PMS5003;35187;31.882;34.828;2023-06-26T06:06:58;23;21;
33431;PMS5003;35187;31.882;34.828;2023-06-26T06:09:27;24;24;
33431;PMS5003;35187;31.882;34.828;2023-06-26T06:11:56;22;22;
33431;PMS5003;35187;31.882;34.828;2023-06-26T06:14:26;22;22;
33431;PMS5003;35187;31.882;34.828;2023-06-26T06:16:55;24;23;
33431;PMS5003;35187;31.882;34.828;2023-06-26T06:19:24;22;20;
33431;PMS5003;35187;31.882;34.828;2023-06-26T06:21:53;18;18;
33431;PMS5003;35187;31.882;34.828;2023-06-26T06:24:22;19;19;
33431;PMS5003;35187;31.882;34.828;2023-06-26T06:26:51;21;19;
33431;PMS5003;35187;31.882;34.828;2023-06-26T06:29:20;20;19;
33431;PMS5003;35187;31.882;34.828;2023-06-26T06:31:48;17;17;
33431;PMS5003;35187;31.882;34.828;2023-06-26T06:34:17;19;18;
33431;PMS5003;35187;31.882;34.828;2023-06-26T06:36:46;19;19;
33431;PMS5003;35187;31.882;34.828;2023-06-26T06:39:15;21;20;
33431;PMS5003;35187;31.882;34.828;2023-06-26T06:41:44;19;18;
33431;PMS5003;35187;31.882;34.828;2023-06-26T06:44:13;16;16;
33431;PMS5003;35187;31.882;34.828;2023-06-26T06:46:42;19;18;
33431;PMS5003;35187;31.882;34.828;2023-06-26T06:49:11;15;14;
33431;PMS5003;35187;31.882;34.828;2023-06-26T06:51:45;17;15;
33431;PMS5003;35187;31.882;34.828;2023-06-26T06:54:15;15;14;
33431;PMS5003;35187;31.882;34.828;2023-06-26T06:56:44;13;13;
33431;PMS5003;35187;31.882;34.828;2023-06-26T06:59:13;13;13;
33431;PMS5003;35187;31.882;34.828;2023-06-26T07:01:42;14;14;
33431;PMS5003;35187;31.882;34.828;2023-06-26T07:04:11;15;14;
33431;PMS5003;35187;31.882;34.828;2023-06-26T07:06:40;11;11;
33431;PMS5003;35187;31.882;34.828;2023-06-26T07:09:09;14;13;
33431;PMS5003;35187;31.882;34.828;2023-06-26T07:11:38;14;13;
33431;PMS5003;35187;31.882;34.828;2023-06-26T07:14:07;14;13;
33431;PMS5003;35187;31.882;34.828;2023-06-26T07:16:37;14;13;
33431;PMS5003;35187;31.882;34.828;2023-06-26T07:19:07;12;11;
33431;PMS5003;35187;31.882;34.828;2023-06-26T07:21:36;16;16;
33431;PMS5003;35187;31.882;34.828;2023-06-26T07:24:05;19;19;
33431;PMS5003;35187;31.882;34.828;2023-06-26T07:26:34;15;13;
33431;PMS5003;35187;31.882;34.828;2023-06-26T07:29:03;18;16;
33431;PMS5003;35187;31.882;34.828;2023-06-26T07:31:38;15;15;
33431;PMS5003;35187;31.882;34.828;2023-06-26T07:34:07;15;15;
33431;PMS5003;35187;31.882;34.828;2023-06-26T07:36:36;18;16;
33431;PMS5003;35187;31.882;34.828;2023-06-26T07:39:05;13;13;
33431;PMS5003;35187;31.882;34.828;2023-06-26T07:41:34;17;16;
33431;PMS5003;35187;31.882;34.828;2023-06-26T07:44:03;16;13;
33431;PMS5003;35187;31.882;34.828;2023-06-26T07:46:37;14;14;
33431;PMS5003;35187;31.882;34.828;2023-06-26T07:49:06;13;13;
33431;PMS5003;35187;31.882;34.828;2023-06-26T07:51:35;13;13;
33431;PMS5003;35187;31.882;34.828;2023-06-26T07:54:04;19;18;
33431;PMS5003;35187;31.882;34.828;2023-06-26T07:56:35;15;15;
33431;PMS5003;35187;31.882;34.828;2023-06-26T07:59:21;14;13;
33431;PMS5003;35187;31.882;34.828;2023-06-26T08:01:51;15;13;
33431;PMS5003;35187;31.882;34.828;2023-06-26T08:04:21;17;17;
33431;PMS5003;35187;31.882;34.828;2023-06-26T08:06:51;13;11;
33431;PMS5003;35187;31.882;34.828;2023-06-26T08:09:22;16;16;
33431;PMS5003;35187;31.882;34.828;2023-06-26T08:11:52;15;14;
33431;PMS5003;35187;31.882;34.828;2023-06-26T08:14:21;15;15;
33431;PMS5003;35187;31.882;34.828;2023-06-26T08:16:50;17;17;
33431;PMS5003;35187;31.882;34.828;2023-06-26T08:19:20;13;13;
33431;PMS5003;35187;31.882;34.828;2023-06-26T08:21:48;15;14;
33431;PMS5003;35187;31.882;34.828;2023-06-26T08:24:17;15;14;
33431;PMS5003;35187;31.882;34.828;2023-06-26T08:26:46;12;11;
33431;PMS5003;35187;31.882;34.828;2023-06-26T08:29:15;14;14;
33431;PMS5003;35187;31.882;34.828;2023-06-26T08:31:44;13;13;
33431;PMS5003;35187;31.882;34.828;2023-06-26T08:34:13;14;14;
33431;PMS5003;35187;31.882;34.828;2023-06-26T08:36:42;16;14;
33431;PMS5003;35187;31.882;34.828;2023-06-26T08:39:10;16;15;
33431;PMS5003;35187;31.882;34.828;2023-06-26T08:41:39;16;15;
33431;PMS5003;35187;31.882;34.828;2023-06-26T08:44:08;16;15;
33431;PMS5003;35187;31.882;34.828;2023-06-26T08:46:37;15;12;
33431;PMS5003;35187;31.882;34.828;2023-06-26T08:49:08;14;14;
33431;PMS5003;35187;31.882;34.828;2023-06-26T08:51:43;17;16;
33431;PMS5003;35187;31.882;34.828;2023-06-26T08:54:25;12;11;
33431;PMS5003;35187;31.882;34.828;2023-06-26T08:56:58;15;14;
33431;PMS5003;35187;31.882;34.828;2023-06-26T08:59:27;13;12;
33431;PMS5003;35187;31.882;34.828;2023-06-26T09:01:57;15;14;
33431;PMS5003;35187;31.882;34.828;2023-06-26T09:04:26;15;14;
33431;PMS5003;35187;31.882;34.828;2023-06-26T09:06:55;15;13;
33431;PMS5003;35187;31.882;34.828;2023-06-26T09:09:24;14;13;
33431;PMS5003;35187;31.882;34.828;2023-06-26T09:11:53;15;15;
33431;PMS5003;35187;31.882;34.828;2023-06-26T09:14:22;12;12;
33431;PMS5003;35187;31.882;34.828;2023-06-26T09:16:52;13;12;
33431;PMS5003;35187;31.882;34.828;2023-06-26T09:19:21;14;14;
33431;PMS5003;35187;31.882;34.828;2023-06-26T09:21:51;16;15;
33431;PMS5003;35187;31.882;34.828;2023-06-26T09:24:20;14;14;
33431;PMS5003;35187;31.882;34.828;2023-06-26T09:26:50;14;14;
33431;PMS5003;35187;31.882;34.828;2023-06-26T09:29:19;18;15;
33431;PMS5003;35187;31.882;34.828;2023-06-26T09:31:49;21;20;
33431;PMS5003;35187;31.882;34.828;2023-06-26T09:34:19;14;14;
33431;PMS5003;35187;31.882;34.828;2023-06-26T09:36:48;14;14;
33431;PMS5003;35187;31.882;34.828;2023-06-26T09:39:21;16;15;
33431;PMS5003;35187;31.882;34.828;2023-06-26T09:41:50;15;14;
33431;PMS5003;35187;31.882;34.828;2023-06-26T09:44:20;18;17;
33431;PMS5003;35187;31.882;34.828;2023-06-26T09:46:49;14;13;
33431;PMS5003;35187;31.882;34.828;2023-06-26T09:49:18;16;15;
33431;PMS5003;35187;31.882;34.828;2023-06-26T09:51:47;15;14;
33431;PMS5003;35187;31.882;34.828;2023-06-26T09:54:18;16;16;
33431;PMS5003;35187;31.882;34.828;2023-06-26T09:56:51;14;13;
33431;PMS5003;35187;31.882;34.828;2023-06-26T09:59:20;12;12;
33431;PMS5003;35187;31.882;34.828;2023-06-26T10:01:50;16;15;
33431;PMS5003;35187;31.882;34.828;2023-06-26T10:04:27;15;14;
33431;PMS5003;35187;31.882;34.828;2023-06-26T10:06:58;16;15;
33431;PMS5003;35187;31.882;34.828;2023-06-26T10:09:29;15;15;
33431;PMS5003;35187;31.882;34.828;2023-06-26T10:12:01;13;12;
33431;PMS5003;35187;31.882;34.828;2023-06-26T10:14:34;13;13;
33431;PMS5003;35187;31.882;34.828;2023-06-26T10:17:07;14;14;
33431;PMS5003;35187;31.882;34.828;2023-06-26T10:19:39;15;15;
33431;PMS5003;35187;31.882;34.828;2023-06-26T10:22:12;14;13;
33431;PMS5003;35187;31.882;34.828;2023-06-26T10:24:45;17;16;
33431;PMS5003;35187;31.882;34.828;2023-06-26T10:27:16;14;14;
33431;PMS5003;35187;31.882;34.828;2023-06-26T10:29:47;16;15;
33431;PMS5003;35187;31.882;34.828;2023-06-26T10:32:22;15;13;
33431;PMS5003;35187;31.882;34.828;2023-06-26T10:34:53;16;15;
33431;PMS5003;35187;31.882;34.828;2023-06-26T10:37:38;13;12;
33431;PMS5003;35187;31.882;34.828;2023-06-26T10:40:10;12;11;
33431;PMS5003;35187;31.882;34.828;2023-06-26T10:42:39;17;16;
33431;PMS5003;35187;31.882;34.828;2023-06-26T10:45:09;15;15;
33431;PMS5003;35187;31.882;34.828;2023-06-26T10:47:39;14;13;
33431;PMS5003;35187;31.882;34.828;2023-06-26T10:50:19;14;13;
33431;PMS5003;35187;31.882;34.828;2023-06-26T10:53:23;13;13;
33431;PMS5003;35187;31.882;34.828;2023-06-26T10:55:55;16;16;
33431;PMS5003;35187;31.882;34.828;2023-06-26T10:58:32;11;11;
33431;PMS5003;35187;31.882;34.828;2023-06-26T11:01:26;14;13;
33431;PMS5003;35187;31.882;34.828;2023-06-26T11:04:04;17;16;
33431;PMS5003;35187;31.882;34.828;2023-06-26T11:06:34;15;13;
33431;PMS5003;35187;31.882;34.828;2023-06-26T11:09:09;14;13;
33431;PMS5003;35187;31.882;34.828;2023-06-26T11:12:11;21;20;
33431;PMS5003;35187;31.882;34.828;2023-06-26T11:14:40;13;13;
33431;PMS5003;35187;31.882;34.828;2023-06-26T11:17:13;17;15;
33431;PMS5003;35187;31.882;34.828;2023-06-26T11:19:42;13;13;
33431;PMS5003;35187;31.882;34.828;2023-06-26T11:22:11;14;13;
33431;PMS5003;35187;31.882;34.828;2023-06-26T11:24:42;16;16;
33431;PMS5003;35187;31.882;34.828;2023-06-26T11:27:12;15;14;
33431;PMS5003;35187;31.882;34.828;2023-06-26T11:29:47;15;13;
33431;PMS5003;35187;31.882;34.828;2023-06-26T11:32:16;16;14;
33431;PMS5003;35187;31.882;34.828;2023-06-26T11:34:45;16;15;
33431;PMS5003;35187;31.882;34.828;2023-06-26T11:37:16;22;20;
33431;PMS5003;35187;31.882;34.828;2023-06-26T11:39:45;16;15;
33431;PMS5003;35187;31.882;34.828;2023-06-26T11:42:14;16;15;
33431;PMS5003;35187;31.882;34.828;2023-06-26T11:44:43;15;15;
33431;PMS5003;35187;31.882;34.828;2023-06-26T11:47:13;18;16;
33431;PMS5003;35187;31.882;34.828;2023-06-26T11:49:43;15;13;
33431;PMS5003;35187;31.882;34.828;2023-06-26T11:52:12;17;14;
33431;PMS5003;35187;31.882;34.828;2023-06-26T11:54:42;17;16;
33431;PMS5003;35187;31.882;34.828;2023-06-26T11:57:13;18;16;
33431;PMS5003;35187;31.882;34.828;2023-06-26T11:59:43;11;11;
33431;PMS5003;35187;31.882;34.828;2023-06-26T12:02:12;16;16;
33431;PMS5003;35187;31.882;34.828;2023-06-26T12:04:42;14;14;
33431;PMS5003;35187;31.882;34.828;2023-06-26T12:07:12;14;14;
33431;PMS5003;35187;31.882;34.828;2023-06-26T12:09:43;14;14;
33431;PMS5003;35187;31.882;34.828;2023-06-26T12:12:14;15;14;
33431;PMS5003;35187;31.882;34.828;2023-06-26T12:14:44;14;14;
33431;PMS5003;35187;31.882;34.828;2023-06-26T12:17:14;17;16;
33431;PMS5003;35187;31.882;34.828;2023-06-26T12:19:43;19;16;
33431;PMS5003;35187;31.882;34.828;2023-06-26T12:22:14;13;13;
33431;PMS5003;35187;31.882;34.828;2023-06-26T12:24:44;15;14;
33431;PMS5003;35187;31.882;34.828;2023-06-26T12:27:17;14;14;
33431;PMS5003;35187;31.882;34.828;2023-06-26T12:29:49;15;15;
33431;PMS5003;35187;31.882;34.828;2023-06-26T12:32:19;18;18;
33431;PMS5003;35187;31.882;34.828;2023-06-26T12:34:51;17;16;
33431;PMS5003;35187;31.882;34.828;2023-06-26T12:37:19;15;15;
33431;PMS5003;35187;31.882;34.828;2023-06-26T12:39:49;13;13;
33431;PMS5003;35187;31.882;34.828;2023-06-26T12:42:19;15;14;
33431;PMS5003;35187;31.882;34.828;2023-06-26T12:44:49;17;15;
33431;PMS5003;35187;31.882;34.828;2023-06-26T12:47:23;13;13;
33431;PMS5003;35187;31.882;34.828;2023-06-26T12:49:53;22;20;
33431;PMS5003;35187;31.882;34.828;2023-06-26T12:52:22;15;15;
33431;PMS5003;35187;31.882;34.828;2023-06-26T12:54:51;18;17;
33431;PMS5003;35187;31.882;34.828;2023-06-26T12:57:21;13;12;
33431;PMS5003;35187;31.882;34.828;2023-06-26T12:59:50;14;13;
33431;PMS5003;35187;31.882;34.828;2023-06-26T13:02:19;15;13;
33431;PMS5003;35187;31.882;34.828;2023-06-26T13:04:48;17;16;
33431;PMS5003;35187;31.882;34.828;2023-06-26T13:07:22;14;12;
33431;PMS5003;35187;31.882;34.828;2023-06-26T13:09:51;16;16;
33431;PMS5003;35187;31.882;34.828;2023-06-26T13:12:20;16;15;
33431;PMS5003;35187;31.882;34.828;2023-06-26T13:15:01;16;16;
33431;PMS5003;35187;31.882;34.828;2023-06-26T13:17:36;16;15;
33431;PMS5003;35187;31.882;34.828;2023-06-26T13:20:10;14;14;
33431;PMS5003;35187;31.882;34.828;2023-06-26T13:22:40;18;16;
33431;PMS5003;35187;31.882;34.828;2023-06-26T13:25:14;16;16;
33431;PMS5003;35187;31.882;34.828;2023-06-26T13:27:43;15;15;
33431;PMS5003;35187;31.882;34.828;2023-06-26T13:30:13;15;15;
33431;PMS5003;35187;31.882;34.828;2023-06-26T13:32:43;19;18;
33431;PMS5003;35187;31.882;34.828;2023-06-26T13:35:12;16;15;
33431;PMS5003;35187;31.882;34.828;2023-06-26T13:37:41;16;15;
33431;PMS5003;35187;31.882;34.828;2023-06-26T13:40:10;18;18;
33431;PMS5003;35187;31.882;34.828;2023-06-26T13:42:40;16;15;
33431;PMS5003;35187;31.882;34.828;2023-06-26T13:45:09;15;15;
33431;PMS5003;35187;31.882;34.828;2023-06-26T13:47:40;16;15;
33431;PMS5003;35187;31.882;34.828;2023-06-26T13:50:10;13;13;
33431;PMS5003;35187;31.882;34.828;2023-06-26T13:52:40;14;13;
33431;PMS5003;35187;31.882;34.828;2023-06-26T13:55:10;13;13;
33431;PMS5003;35187;31.882;34.828;2023-06-26T13:57:39;16;15;
33431;PMS5003;35187;31.882;34.828;2023-06-26T14:00:14;16;15;
33431;PMS5003;35187;31.882;34.828;2023-06-26T14:02:46;16;15;
33431;PMS5003;35187;31.882;34.828;2023-06-26T14:05:15;17;16;
33431;PMS5003;35187;31.882;34.828;2023-06-26T14:07:45;15;14;
33431;PMS5003;35187;31.882;34.828;2023-06-26T14:10:15;13;13;
33431;PMS5003;35187;31.882;34.828;2023-06-26T14:12:45;13;13;
33431;PMS5003;35187;31.882;34.828;2023-06-26T14:15:16;15;15;
33431;PMS5003;35187;31.882;34.828;2023-06-26T14:17:46;14;12;
33431;PMS5003;35187;31.882;34.828;2023-06-26T14:20:14;16;16;
33431;PMS5003;35187;31.882;34.828;2023-06-26T14:22:44;18;17;
33431;PMS5003;35187;31.882;34.828;2023-06-26T14:25:14;16;15;
33431;PMS5003;35187;31.882;34.828;2023-06-26T14:27:48;16;14;
33431;PMS5003;35187;31.882;34.828;2023-06-26T14:30:17;17;16;
33431;PMS5003;35187;31.882;34.828;2023-06-26T14:32:52;14;14;
33431;PMS5003;35187;31.882;34.828;2023-06-26T14:35:27;16;15;
33431;PMS5003;35187;31.882;34.828;2023-06-26T14:37:56;17;16;
33431;PMS5003;35187;31.882;34.828;2023-06-26T14:40:31;17;17;
33431;PMS5003;35187;31.882;34.828;2023-06-26T14:43:00;16;15;
33431;PMS5003;35187;31.882;34.828;2023-06-26T14:45:35;18;17;
33431;PMS5003;35187;31.882;34.828;2023-06-26T14:48:04;16;15;
33431;PMS5003;35187;31.882;34.828;2023-06-26T14:50:33;17;17;
33431;PMS5003;35187;31.882;34.828;2023-06-26T14:53:03;17;16;
33431;PMS5003;35187;31.882;34.828;2023-06-26T14:55:32;14;13;
33431;PMS5003;35187;31.882;34.828;2023-06-26T14:58:01;20;18;
33431;PMS5003;35187;31.882;34.828;2023-06-26T15:00:34;17;16;
33431;PMS5003;35187;31.882;34.828;2023-06-26T15:03:03;18;18;
33431;PMS5003;35187;31.882;34.828;2023-06-26T15:05:32;17;16;
33431;PMS5003;35187;31.882;34.828;2023-06-26T15:08:01;13;13;
33431;PMS5003;35187;31.882;34.828;2023-06-26T15:10:36;21;19;
33431;PMS5003;35187;31.882;34.828;2023-06-26T15:13:05;16;16;
33431;PMS5003;35187;31.882;34.828;2023-06-26T15:15:35;18;17;
33431;PMS5003;35187;31.882;34.828;2023-06-26T15:18:05;18;18;
33431;PMS5003;35187;31.882;34.828;2023-06-26T15:20:34;14;14;
33431;PMS5003;35187;31.882;34.828;2023-06-26T15:23:03;18;16;
33431;PMS5003;35187;31.882;34.828;2023-06-26T15:25:32;12;11;
33431;PMS5003;35187;31.882;34.828;2023-06-26T15:28:01;15;15;
33431;PMS5003;35187;31.882;34.828;2023-06-26T15:30:29;14;14;
33431;PMS5003;35187;31.882;34.828;2023-06-26T15:32:59;14;14;
33431;PMS5003;35187;31.882;34.828;2023-06-26T15:35:28;13;12;
33431;PMS5003;35187;31.882;34.828;2023-06-26T15:37:57;15;13;
33431;PMS5003;35187;31.882;34.828;2023-06-26T15:41:38;15;15;
33431;PMS5003;35187;31.882;34.828;2023-06-26T15:44:07;12;11;
33431;PMS5003;35187;31.882;34.828;2023-06-26T15:46:36;13;13;
33431;PMS5003;35187;31.882;34.828;2023-06-26T15:49:04;12;12;
33431;PMS5003;35187;31.882;34.828;2023-06-26T15:51:33;12;11;
33431;PMS5003;35187;31.882;34.828;2023-06-26T15:54:02;12;12;
33431;PMS5003;35187;31.882;34.828;2023-06-26T15:56:37;15;12;
33431;PMS5003;35187;31.882;34.828;2023-06-26T15:59:07;15;13;
33431;PMS5003;35187;31.882;34.828;2023-06-26T16:01:36;10;10;
33431;PMS5003;35187;31.882;34.828;2023-06-26T16:04:05;9;9;
33431;PMS5003;35187;31.882;34.828;2023-06-26T16:06:34;10;9;
33431;PMS5003;35187;31.882;34.828;2023-06-26T16:09:03;11;11;
33431;PMS5003;35187;31.882;34.828;2023-06-26T16:11:31;8;8;
33431;PMS5003;35187;31.882;34.828;2023-06-26T16:14:00;11;11;
33431;PMS5003;35187;31.882;34.828;2023-06-26T16:16:29;10;9;
33431;PMS5003;35187;31.882;34.828;2023-06-26T16:18:58;11;9;
33431;PMS5003;35187;31.882;34.828;2023-06-26T16:21:27;8;8;
33431;PMS5003;35187;31.882;34.828;2023-06-26T16:23:57;11;11;
33431;PMS5003;35187;31.882;34.828;2023-06-26T16:26:25;10;10;
33431;PMS5003;35187;31.882;34.828;2023-06-26T16:28:54;9;9;